MiSS Courtney — WDI7965 — position and weather

sailwx.info

Track history (hours):
 
Tides and Currents Weather Stations Pressure Air Temp Water Temp Dewpoint Dewpoint Depression Visibility Wind Speed Wind Dir Waves Ship Positions

MiSS Courtney

Owner: Washburn Marine Towing, LLC, morgan city, LA. More information available from US FCC via Universal Licensing System and Coast Guard Vessel Documentation Center.

Last reported at 2018-Apr-18 15:33 UTC. Time now 2018-Jun-22 20:18 UTC.
Position N 30°24' W 086°53'.
Warning: this ship's position is months out of date.

Length 15 m; draft 2.5 m.

Type: Tug. MMSI: 368280000.

Date/timePositionNaut miles runAvg speedWind from/ knotsBaromVisibWave heightAir tempDewpointWater temp
2018-Apr-18 15:33N 30°24' W 086°53'0 5.5
2018-Apr-18 15:31N 30°24' W 086°53'3 5.3
2018-Apr-18 15:00N 30°24' W 086°50'3 5.5
2018-Apr-18 14:31N 30°24' W 086°47'13 4.9
2018-Apr-18 11:51N 30°25' W 086°31'1 2.2
2018-Apr-18 11:31N 30°24' W 086°31'0 0.0
2018-Apr-18 11:00N 30°24' W 086°31'0 0.0
2018-Apr-18 10:30N 30°24' W 086°31'0 0.0
2018-Apr-18 10:00N 30°24' W 086°31'0 0.0
2018-Apr-18 09:31N 30°24' W 086°31'0 0.0
2018-Apr-18 09:00N 30°24' W 086°31'0 0.0
2018-Apr-18 08:30N 30°24' W 086°31'0 0.0
2018-Apr-18 08:00N 30°24' W 086°31'0 0.0
2018-Apr-18 07:30N 30°24' W 086°31'0 0.0
2018-Apr-18 07:00N 30°24' W 086°31'0 0.0
2018-Apr-18 06:30N 30°24' W 086°31'0 0.0
2018-Apr-18 06:01N 30°24' W 086°31'0 0.0
2018-Apr-18 05:31N 30°24' W 086°31'0 0.0
2018-Apr-18 05:00N 30°24' W 086°31'0 0.0
2018-Apr-18 04:27N 30°24' W 086°31'0 0.1
2018-Apr-18 04:00N 30°24' W 086°31'1 2.0
2018-Apr-18 03:26N 30°25' W 086°32'10 5.1
2018-Apr-18 01:27N 30°24' W 086°44'3 5.7
2018-Apr-18 01:00N 30°24' W 086°47'3 5.8
2018-Apr-18 00:30N 30°24' W 086°50'3 5.7
2018-Apr-18 00:00N 30°24' W 086°53'  
Track history (hours):
 
Tides and Currents Weather Stations Pressure Air Temp Water Temp Dewpoint Dewpoint Depression Visibility Wind Speed Wind Dir Waves Ship Positions

MiSS Courtney

Owner: Washburn Marine Towing, LLC, morgan city, LA. More information available from US FCC via Universal Licensing System and Coast Guard Vessel Documentation Center.

Last reported at 2018-Apr-18 15:33 UTC. Time now 2018-Jun-22 20:18 UTC.
Position N 30°24' W 086°53'.
Warning: this ship's position is months out of date.

Length 15 m; draft 2.5 m.

Type: Tug. MMSI: 368280000.

Date/timePositionNaut miles runAvg speedWind from/ knotsBaromVisibWave heightAir tempDewpointWater temp
2018-Apr-18 15:33N 30°24' W 086°53'0 5.5
2018-Apr-18 15:31N 30°24' W 086°53'3 5.3
2018-Apr-18 15:00N 30°24' W 086°50'3 5.5
2018-Apr-18 14:31N 30°24' W 086°47'13 4.9
2018-Apr-18 11:51N 30°25' W 086°31'1 2.2
2018-Apr-18 11:31N 30°24' W 086°31'0 0.0
2018-Apr-18 11:00N 30°24' W 086°31'0 0.0
2018-Apr-18 10:30N 30°24' W 086°31'0 0.0
2018-Apr-18 10:00N 30°24' W 086°31'0 0.0
2018-Apr-18 09:31N 30°24' W 086°31'0 0.0
2018-Apr-18 09:00N 30°24' W 086°31'0 0.0
2018-Apr-18 08:30N 30°24' W 086°31'0 0.0
2018-Apr-18 08:00N 30°24' W 086°31'0 0.0
2018-Apr-18 07:30N 30°24' W 086°31'0 0.0
2018-Apr-18 07:00N 30°24' W 086°31'0 0.0
2018-Apr-18 06:30N 30°24' W 086°31'0 0.0
2018-Apr-18 06:01N 30°24' W 086°31'0 0.0
2018-Apr-18 05:31N 30°24' W 086°31'0 0.0
2018-Apr-18 05:00N 30°24' W 086°31'0 0.0
2018-Apr-18 04:27N 30°24' W 086°31'0 0.1
2018-Apr-18 04:00N 30°24' W 086°31'1 2.0
2018-Apr-18 03:26N 30°25' W 086°32'10 5.1
2018-Apr-18 01:27N 30°24' W 086°44'3 5.7
2018-Apr-18 01:00N 30°24' W 086°47'3 5.8
2018-Apr-18 00:30N 30°24' W 086°50'3 5.7
2018-Apr-18 00:00N 30°24' W 086°53'  

Dump ship's entire track history